sensor_id;sensor_type;location;lat;lon;timestamp;P1;durP1;ratioP1;P2;durP2;ratioP2
49147;SDS011;41980;45.550;12.070;2022-09-28T00:10:09;1.48;;;0.80;;
49147;SDS011;41980;45.550;12.070;2022-09-28T00:17:14;3.70;;;0.80;;
49147;SDS011;41980;45.550;12.070;2022-09-28T00:23:58;1.40;;;0.70;;
49147;SDS011;41980;45.550;12.070;2022-09-28T00:30:35;2.17;;;0.85;;
49147;SDS011;41980;45.550;12.070;2022-09-28T00:37:36;1.73;;;0.70;;
49147;SDS011;41980;45.550;12.070;2022-09-28T00:50:36;1.50;;;0.67;;
49147;SDS011;41980;45.550;12.070;2022-09-28T00:56:45;1.70;;;0.93;;
49147;SDS011;41980;45.550;12.070;2022-09-28T01:03:16;1.10;;;0.60;;
49147;SDS011;41980;45.550;12.070;2022-09-28T01:09:26;1.48;;;0.80;;
49147;SDS011;41980;45.550;12.070;2022-09-28T01:42:38;1.63;;;0.70;;
49147;SDS011;41980;45.550;12.070;2022-09-28T01:48:53;1.50;;;0.70;;
49147;SDS011;41980;45.550;12.070;2022-09-28T01:55:31;1.40;;;0.73;;
49147;SDS011;41980;45.550;12.070;2022-09-28T02:02:32;1.33;;;0.70;;
49147;SDS011;41980;45.550;12.070;2022-09-28T02:09:58;2.50;;;1.02;;
49147;SDS011;41980;45.550;12.070;2022-09-28T02:16:13;4.22;;;0.60;;
49147;SDS011;41980;45.550;12.070;2022-09-28T02:22:29;1.52;;;0.80;;
49147;SDS011;41980;45.550;12.070;2022-09-28T02:28:44;1.27;;;0.68;;
49147;SDS011;41980;45.550;12.070;2022-09-28T02:34:48;4.15;;;1.30;;
49147;SDS011;41980;45.550;12.070;2022-09-28T03:11:44;1.70;;;1.00;;
49147;SDS011;41980;45.550;12.070;2022-09-28T03:17:55;2.08;;;1.00;;
49147;SDS011;41980;45.550;12.070;2022-09-28T03:24:02;2.20;;;0.90;;
49147;SDS011;41980;45.550;12.070;2022-09-28T03:30:15;2.42;;;0.98;;
49147;SDS011;41980;45.550;12.070;2022-09-28T03:36:21;1.87;;;0.93;;
49147;SDS011;41980;45.550;12.070;2022-09-28T03:42:24;2.05;;;1.00;;
49147;SDS011;41980;45.550;12.070;2022-09-28T03:48:31;2.00;;;0.85;;
49147;SDS011;41980;45.550;12.070;2022-09-28T03:54:50;1.65;;;0.90;;
49147;SDS011;41980;45.550;12.070;2022-09-28T04:07:07;1.30;;;0.70;;
49147;SDS011;41980;45.550;12.070;2022-09-28T04:13:31;1.63;;;0.80;;
49147;SDS011;41980;45.550;12.070;2022-09-28T04:19:44;1.50;;;0.90;;
49147;SDS011;41980;45.550;12.070;2022-09-28T04:25:55;1.48;;;0.70;;
49147;SDS011;41980;45.550;12.070;2022-09-28T04:32:09;2.10;;;1.02;;
49147;SDS011;41980;45.550;12.070;2022-09-28T04:38:14;1.75;;;0.80;;
49147;SDS011;41980;45.550;12.070;2022-09-28T04:44:17;2.67;;;0.80;;
49147;SDS011;41980;45.550;12.070;2022-09-28T04:50:22;1.60;;;0.80;;
49147;SDS011;41980;45.550;12.070;2022-09-28T04:56:39;4.13;;;0.80;;
49147;SDS011;41980;45.550;12.070;2022-09-28T05:02:49;2.25;;;0.70;;
49147;SDS011;41980;45.550;12.070;2022-09-28T05:08:56;1.63;;;0.75;;
49147;SDS011;41980;45.550;12.070;2022-09-28T05:15:27;1.50;;;0.80;;
49147;SDS011;41980;45.550;12.070;2022-09-28T05:22:00;1.50;;;0.70;;
49147;SDS011;41980;45.550;12.070;2022-09-28T05:28:35;1.80;;;0.65;;
49147;SDS011;41980;45.550;12.070;2022-09-28T05:35:00;2.67;;;1.45;;
49147;SDS011;41980;45.550;12.070;2022-09-28T05:41:16;1.85;;;0.80;;
49147;SDS011;41980;45.550;12.070;2022-09-28T05:47:29;2.00;;;1.00;;
49147;SDS011;41980;45.550;12.070;2022-09-28T05:53:31;2.28;;;0.82;;
49147;SDS011;41980;45.550;12.070;2022-09-28T05:59:35;1.70;;;0.90;;
49147;SDS011;41980;45.550;12.070;2022-09-28T06:05:37;1.88;;;0.90;;
49147;SDS011;41980;45.550;12.070;2022-09-28T06:11:46;2.40;;;1.10;;
49147;SDS011;41980;45.550;12.070;2022-09-28T06:24:01;1.38;;;0.70;;
49147;SDS011;41980;45.550;12.070;2022-09-28T06:30:04;1.70;;;0.77;;
49147;SDS011;41980;45.550;12.070;2022-09-28T06:36:27;2.60;;;0.98;;
49147;SDS011;41980;45.550;12.070;2022-09-28T06:42:32;1.60;;;0.88;;
49147;SDS011;41980;45.550;12.070;2022-09-28T06:48:54;1.60;;;0.70;;
49147;SDS011;41980;45.550;12.070;2022-09-28T06:55:16;2.53;;;1.08;;
49147;SDS011;41980;45.550;12.070;2022-09-28T07:01:21;2.15;;;0.90;;
49147;SDS011;41980;45.550;12.070;2022-09-28T07:07:26;1.40;;;0.70;;
49147;SDS011;41980;45.550;12.070;2022-09-28T07:13:32;2.00;;;0.80;;
49147;SDS011;41980;45.550;12.070;2022-09-28T07:19:38;2.05;;;0.85;;
49147;SDS011;41980;45.550;12.070;2022-09-28T07:25:41;4.38;;;1.23;;
49147;SDS011;41980;45.550;12.070;2022-09-28T07:31:49;2.60;;;0.88;;
49147;SDS011;41980;45.550;12.070;2022-09-28T07:37:58;2.00;;;0.90;;
49147;SDS011;41980;45.550;12.070;2022-09-28T07:44:02;2.15;;;0.95;;
49147;SDS011;41980;45.550;12.070;2022-09-28T07:50:08;1.70;;;0.90;;
49147;SDS011;41980;45.550;12.070;2022-09-28T07:56:21;2.30;;;0.70;;
49147;SDS011;41980;45.550;12.070;2022-09-28T08:02:27;1.95;;;0.85;;
49147;SDS011;41980;45.550;12.070;2022-09-28T08:08:34;1.30;;;0.60;;
49147;SDS011;41980;45.550;12.070;2022-09-28T08:14:36;2.03;;;0.90;;
49147;SDS011;41980;45.550;12.070;2022-09-28T08:20:42;3.03;;;0.98;;
49147;SDS011;41980;45.550;12.070;2022-09-28T08:26:48;2.58;;;0.90;;
49147;SDS011;41980;45.550;12.070;2022-09-28T08:32:52;1.55;;;0.70;;
49147;SDS011;41980;45.550;12.070;2022-09-28T08:38:57;3.75;;;0.80;;
49147;SDS011;41980;45.550;12.070;2022-09-28T08:45:09;1.65;;;0.80;;
49147;SDS011;41980;45.550;12.070;2022-09-28T08:51:20;1.73;;;0.60;;
49147;SDS011;41980;45.550;12.070;2022-09-28T08:57:32;5.38;;;1.05;;
49147;SDS011;41980;45.550;12.070;2022-09-28T09:03:48;1.55;;;0.70;;
49147;SDS011;41980;45.550;12.070;2022-09-28T09:53:36;1.73;;;0.70;;
49147;SDS011;41980;45.550;12.070;2022-09-28T09:59:44;1.30;;;0.60;;
49147;SDS011;41980;45.550;12.070;2022-09-28T10:05:57;1.58;;;0.60;;
49147;SDS011;41980;45.550;12.070;2022-09-28T10:12:07;1.77;;;0.60;;
49147;SDS011;41980;45.550;12.070;2022-09-28T10:18:14;1.15;;;0.50;;
49147;SDS011;41980;45.550;12.070;2022-09-28T10:24:27;1.48;;;0.60;;
49147;SDS011;41980;45.550;12.070;2022-09-28T10:30:36;1.88;;;0.82;;
49147;SDS011;41980;45.550;12.070;2022-09-28T10:36:46;3.17;;;0.93;;
49147;SDS011;41980;45.550;12.070;2022-09-28T10:42:50;1.35;;;0.52;;
49147;SDS011;41980;45.550;12.070;2022-09-28T10:49:04;1.63;;;0.75;;
49147;SDS011;41980;45.550;12.070;2022-09-28T11:01:24;1.45;;;0.50;;
49147;SDS011;41980;45.550;12.070;2022-09-28T11:07:32;1.30;;;0.70;;
49147;SDS011;41980;45.550;12.070;2022-09-28T11:13:48;1.92;;;0.73;;
49147;SDS011;41980;45.550;12.070;2022-09-28T11:19:59;1.45;;;0.70;;
49147;SDS011;41980;45.550;12.070;2022-09-28T11:26:24;2.47;;;0.98;;
49147;SDS011;41980;45.550;12.070;2022-09-28T11:32:28;2.28;;;0.90;;
49147;SDS011;41980;45.550;12.070;2022-09-28T11:45:09;1.73;;;0.70;;
49147;SDS011;41980;45.550;12.070;2022-09-28T11:51:25;1.88;;;0.80;;
49147;SDS011;41980;45.550;12.070;2022-09-28T11:57:34;1.50;;;0.60;;
49147;SDS011;41980;45.550;12.070;2022-09-28T12:03:41;2.55;;;0.90;;
49147;SDS011;41980;45.550;12.070;2022-09-28T12:22:10;2.10;;;1.00;;
49147;SDS011;41980;45.550;12.070;2022-09-28T12:28:24;2.17;;;0.88;;
49147;SDS011;41980;45.550;12.070;2022-09-28T12:34:39;2.20;;;0.80;;
49147;SDS011;41980;45.550;12.070;2022-09-28T12:40:47;2.58;;;1.08;;
49147;SDS011;41980;45.550;12.070;2022-09-28T12:59:12;2.17;;;0.80;;
49147;SDS011;41980;45.550;12.070;2022-09-28T13:23:45;3.13;;;1.10;;
49147;SDS011;41980;45.550;12.070;2022-09-28T13:29:49;3.60;;;1.20;;
49147;SDS011;41980;45.550;12.070;2022-09-28T13:35:52;2.95;;;1.15;;
49147;SDS011;41980;45.550;12.070;2022-09-28T13:41:54;4.68;;;0.90;;
49147;SDS011;41980;45.550;12.070;2022-09-28T14:00:14;3.92;;;1.20;;
49147;SDS011;41980;45.550;12.070;2022-09-28T14:06:24;4.00;;;1.00;;
49147;SDS011;41980;45.550;12.070;2022-09-28T14:12:30;4.13;;;1.20;;
49147;SDS011;41980;45.550;12.070;2022-09-28T14:31:05;2.03;;;0.90;;
49147;SDS011;41980;45.550;12.070;2022-09-28T14:55:45;3.03;;;1.00;;
49147;SDS011;41980;45.550;12.070;2022-09-28T15:07:58;3.13;;;1.30;;
49147;SDS011;41980;45.550;12.070;2022-09-28T15:14:04;4.30;;;1.40;;
49147;SDS011;41980;45.550;12.070;2022-09-28T15:20:11;3.72;;;1.38;;
49147;SDS011;41980;45.550;12.070;2022-09-28T15:26:27;5.28;;;1.08;;
49147;SDS011;41980;45.550;12.070;2022-09-28T15:32:31;3.75;;;1.10;;
49147;SDS011;41980;45.550;12.070;2022-09-28T15:38:33;4.20;;;1.10;;
49147;SDS011;41980;45.550;12.070;2022-09-28T15:44:37;2.17;;;0.80;;
49147;SDS011;41980;45.550;12.070;2022-09-28T15:56:58;2.63;;;1.10;;
49147;SDS011;41980;45.550;12.070;2022-09-28T16:09:27;3.38;;;0.98;;
49147;SDS011;41980;45.550;12.070;2022-09-28T16:15:32;3.55;;;1.00;;
49147;SDS011;41980;45.550;12.070;2022-09-28T16:27:44;4.03;;;1.80;;
49147;SDS011;41980;45.550;12.070;2022-09-28T16:39:54;2.72;;;1.50;;
49147;SDS011;41980;45.550;12.070;2022-09-28T16:45:58;3.78;;;1.35;;
49147;SDS011;41980;45.550;12.070;2022-09-28T16:52:07;2.83;;;1.50;;
49147;SDS011;41980;45.550;12.070;2022-09-28T16:58:13;3.67;;;1.38;;
49147;SDS011;41980;45.550;12.070;2022-09-28T17:04:16;2.40;;;1.10;;
49147;SDS011;41980;45.550;12.070;2022-09-28T17:10:21;2.72;;;1.27;;
49147;SDS011;41980;45.550;12.070;2022-09-28T17:16:30;2.25;;;1.23;;
49147;SDS011;41980;45.550;12.070;2022-09-28T17:22:33;7.80;;;1.90;;
49147;SDS011;41980;45.550;12.070;2022-09-28T17:28:38;2.70;;;0.95;;
49147;SDS011;41980;45.550;12.070;2022-09-28T17:34:40;2.03;;;1.10;;
49147;SDS011;41980;45.550;12.070;2022-09-28T17:40:42;2.03;;;0.85;;
49147;SDS011;41980;45.550;12.070;2022-09-28T17:46:46;2.35;;;1.10;;
49147;SDS011;41980;45.550;12.070;2022-09-28T17:52:50;3.92;;;1.60;;
49147;SDS011;41980;45.550;12.070;2022-09-28T17:58:54;2.80;;;1.30;;
49147;SDS011;41980;45.550;12.070;2022-09-28T18:05:00;3.30;;;2.10;;
49147;SDS011;41980;45.550;12.070;2022-09-28T18:11:04;4.50;;;1.75;;
49147;SDS011;41980;45.550;12.070;2022-09-28T18:17:06;2.78;;;1.70;;
49147;SDS011;41980;45.550;12.070;2022-09-28T18:23:08;5.05;;;1.88;;
49147;SDS011;41980;45.550;12.070;2022-09-28T18:29:10;2.33;;;1.23;;
49147;SDS011;41980;45.550;12.070;2022-09-28T18:35:12;2.85;;;1.60;;
49147;SDS011;41980;45.550;12.070;2022-09-28T18:41:14;2.35;;;1.30;;
49147;SDS011;41980;45.550;12.070;2022-09-28T18:47:16;1.90;;;1.05;;
49147;SDS011;41980;45.550;12.070;2022-09-28T18:53:20;2.03;;;1.02;;
49147;SDS011;41980;45.550;12.070;2022-09-28T18:59:25;2.58;;;1.55;;
49147;SDS011;41980;45.550;12.070;2022-09-28T19:05:28;3.58;;;2.30;;
49147;SDS011;41980;45.550;12.070;2022-09-28T19:11:31;2.33;;;1.40;;
49147;SDS011;41980;45.550;12.070;2022-09-28T19:17:33;2.20;;;1.20;;
49147;SDS011;41980;45.550;12.070;2022-09-28T19:23:35;2.33;;;1.40;;
49147;SDS011;41980;45.550;12.070;2022-09-28T19:29:37;3.30;;;1.23;;
49147;SDS011;41980;45.550;12.070;2022-09-28T19:35:41;1.83;;;1.05;;
49147;SDS011;41980;45.550;12.070;2022-09-28T19:41:44;2.75;;;1.48;;
49147;SDS011;41980;45.550;12.070;2022-09-28T19:47:47;3.78;;;1.67;;
49147;SDS011;41980;45.550;12.070;2022-09-28T19:53:49;2.03;;;1.10;;
49147;SDS011;41980;45.550;12.070;2022-09-28T19:59:52;2.65;;;1.40;;
49147;SDS011;41980;45.550;12.070;2022-09-28T20:12:00;3.97;;;1.75;;
49147;SDS011;41980;45.550;12.070;2022-09-28T20:18:02;3.47;;;1.85;;
49147;SDS011;41980;45.550;12.070;2022-09-28T20:24:04;2.75;;;1.55;;
49147;SDS011;41980;45.550;12.070;2022-09-28T20:30:08;2.92;;;1.60;;
49147;SDS011;41980;45.550;12.070;2022-09-28T20:36:14;2.90;;;1.75;;
49147;SDS011;41980;45.550;12.070;2022-09-28T20:42:19;3.20;;;2.22;;
49147;SDS011;41980;45.550;12.070;2022-09-28T20:48:24;3.40;;;2.00;;
49147;SDS011;41980;45.550;12.070;2022-09-28T20:54:28;2.92;;;2.05;;
49147;SDS011;41980;45.550;12.070;2022-09-28T21:00:31;3.90;;;2.17;;
49147;SDS011;41980;45.550;12.070;2022-09-28T21:06:35;3.78;;;2.15;;
49147;SDS011;41980;45.550;12.070;2022-09-28T21:12:40;2.78;;;1.98;;
49147;SDS011;41980;45.550;12.070;2022-09-28T21:18:42;5.38;;;3.13;;
49147;SDS011;41980;45.550;12.070;2022-09-28T21:24:45;4.20;;;2.00;;
49147;SDS011;41980;45.550;12.070;2022-09-28T21:30:48;3.03;;;2.00;;
49147;SDS011;41980;45.550;12.070;2022-09-28T21:36:52;3.47;;;1.80;;
49147;SDS011;41980;45.550;12.070;2022-09-28T21:42:55;3.60;;;2.38;;
49147;SDS011;41980;45.550;12.070;2022-09-28T21:48:57;3.03;;;2.15;;
49147;SDS011;41980;45.550;12.070;2022-09-28T21:55:01;4.57;;;2.92;;
49147;SDS011;41980;45.550;12.070;2022-09-28T22:07:15;2.75;;;1.95;;
49147;SDS011;41980;45.550;12.070;2022-09-28T22:13:17;2.67;;;2.00;;
49147;SDS011;41980;45.550;12.070;2022-09-28T22:19:19;2.92;;;1.60;;
49147;SDS011;41980;45.550;12.070;2022-09-28T22:25:21;3.10;;;1.80;;
49147;SDS011;41980;45.550;12.070;2022-09-28T22:31:24;4.10;;;2.20;;
49147;SDS011;41980;45.550;12.070;2022-09-28T22:37:29;2.85;;;1.95;;
49147;SDS011;41980;45.550;12.070;2022-09-28T22:43:33;2.78;;;1.75;;
49147;SDS011;41980;45.550;12.070;2022-09-28T22:49:35;3.15;;;1.90;;
49147;SDS011;41980;45.550;12.070;2022-09-28T22:55:37;3.00;;;1.75;;
49147;SDS011;41980;45.550;12.070;2022-09-28T23:01:39;3.17;;;1.92;;
49147;SDS011;41980;45.550;12.070;2022-09-28T23:07:40;3.65;;;2.25;;
49147;SDS011;41980;45.550;12.070;2022-09-28T23:19:51;1.85;;;1.10;;
49147;SDS011;41980;45.550;12.070;2022-09-28T23:25:53;3.92;;;1.70;;
49147;SDS011;41980;45.550;12.070;2022-09-28T23:31:55;2.88;;;1.50;;
49147;SDS011;41980;45.550;12.070;2022-09-28T23:37:57;2.10;;;1.50;;
49147;SDS011;41980;45.550;12.070;2022-09-28T23:43:59;3.25;;;1.38;;
49147;SDS011;41980;45.550;12.070;2022-09-28T23:50:01;3.38;;;1.75;;
49147;SDS011;41980;45.550;12.070;2022-09-28T23:56:04;3.35;;;2.28;;
